AJB4015 SAAR-SACO
Flight info
| Callsign | AJB4015 |
|---|---|
| Flight time | 0h 56m |
| Altitude | 20000 |
| Route | TOLUK2C TOLUK W5 ASISA ASISA1Q |
| Aircraft | AT76/M-SDFGIRY/S |
Departure
| Time | 2026-05-04 04:30 |
|---|---|
| Airport | Rosario Islas Malvinas International Airport (SAAR) |
Arrival
| Time | 2026-05-04 05:26 |
|---|---|
| Airport | Ingeniero Aeronáutico Ambrosio L.V. Taravella International Airport (SACO) |
| Time | Latitude | Longitude | Altitude | Speed | Heading |
|---|---|---|---|---|---|
| 2026-05-04 04:04 | -32.91624 | -60.78113 | 92 ft | 0 kts | 109° |
| 2026-05-04 04:17 | -32.91621 | -60.78120 | 92 ft | 1 kts | 109° |
| 2026-05-04 04:18 | -32.91619 | -60.78128 | 94 ft | 1 kts | 110° |
| 2026-05-04 04:18 | -32.91617 | -60.78136 | 93 ft | 1 kts | 110° |
| 2026-05-04 04:18 | -32.91614 | -60.78145 | 94 ft | 1 kts | 111° |
| 2026-05-04 04:18 | -32.91612 | -60.78153 | 93 ft | 1 kts | 111° |
| 2026-05-04 04:19 | -32.91609 | -60.78160 | 92 ft | 1 kts | 112° |
| 2026-05-04 04:19 | -32.91606 | -60.78168 | 92 ft | 1 kts | 112° |
| 2026-05-04 04:19 | -32.91603 | -60.78176 | 92 ft | 1 kts | 112° |
| 2026-05-04 04:19 | -32.91601 | -60.78184 | 94 ft | 1 kts | 110° |
| 2026-05-04 04:20 | -32.91598 | -60.78192 | 93 ft | 1 kts | 108° |
| 2026-05-04 04:20 | -32.91596 | -60.78200 | 92 ft | 1 kts | 108° |
| 2026-05-04 04:20 | -32.91594 | -60.78208 | 92 ft | 1 kts | 114° |
| 2026-05-04 04:20 | -32.91591 | -60.78215 | 92 ft | 1 kts | 130° |
| 2026-05-04 04:21 | -32.91588 | -60.78219 | 95 ft | 1 kts | 155° |
| 2026-05-04 04:21 | -32.91584 | -60.78221 | 95 ft | 1 kts | 172° |
| 2026-05-04 04:21 | -32.91580 | -60.78222 | 95 ft | 0 kts | 181° |
| 2026-05-04 04:21 | -32.91577 | -60.78222 | 95 ft | 0 kts | 187° |
| 2026-05-04 04:22 | -32.91574 | -60.78221 | 95 ft | 0 kts | 192° |
| 2026-05-04 04:22 | -32.91571 | -60.78221 | 92 ft | 0 kts | 195° |
| 2026-05-04 04:25 | -32.91597 | -60.78232 | 92 ft | 7 kts | 201° |
| 2026-05-04 04:26 | -32.91654 | -60.78259 | 92 ft | 10 kts | 202° |
| 2026-05-04 04:26 | -32.91712 | -60.78286 | 93 ft | 9 kts | 200° |
| 2026-05-04 04:26 | -32.91754 | -60.78343 | 92 ft | 11 kts | 257° |
| 2026-05-04 04:26 | -32.91770 | -60.78434 | 92 ft | 12 kts | 258° |
| 2026-05-04 04:27 | -32.91790 | -60.78534 | 95 ft | 13 kts | 256° |
| 2026-05-04 04:27 | -32.91768 | -60.78617 | 92 ft | 7 kts | 313° |
| 2026-05-04 04:27 | -32.91755 | -60.78632 | 93 ft | 0 kts | 313° |
| 2026-05-04 04:28 | -32.91754 | -60.78634 | 93 ft | 3 kts | 313° |
| 2026-05-04 04:28 | -32.91713 | -60.78686 | 91 ft | 10 kts | 316° |
| 2026-05-04 04:28 | -32.91660 | -60.78728 | 92 ft | 9 kts | 327° |
| 2026-05-04 04:29 | -32.91589 | -60.78746 | 92 ft | 20 kts | 8° |
| 2026-05-04 04:29 | -32.91355 | -60.78693 | 93 ft | 59 kts | 11° |
| 2026-05-04 04:29 | -32.90751 | -60.78558 | 98 ft | 115 kts | 12° |
| 2026-05-04 04:29 | -32.89861 | -60.78382 | 261 ft | 141 kts | 10° |
| 2026-05-04 04:30 | -32.88815 | -60.78159 | 484 ft | 164 kts | 11° |
| 2026-05-04 04:30 | -32.87624 | -60.77914 | 709 ft | 182 kts | 11° |
| 2026-05-04 04:30 | -32.86420 | -60.77684 | 1309 ft | 170 kts | 11° |
| 2026-05-04 04:30 | -32.85290 | -60.77398 | 2092 ft | 158 kts | 11° |
| 2026-05-04 04:31 | -32.84281 | -60.77499 | 2780 ft | 147 kts | 327° |
| 2026-05-04 04:31 | -32.83787 | -60.78592 | 2972 ft | 166 kts | 282° |
| 2026-05-04 04:31 | -32.83591 | -60.79989 | 3258 ft | 173 kts | 285° |
| 2026-05-04 04:31 | -32.83346 | -60.81388 | 3643 ft | 173 kts | 287° |
| 2026-05-04 04:32 | -32.83039 | -60.82776 | 4030 ft | 174 kts | 290° |
| 2026-05-04 04:32 | -32.82667 | -60.84144 | 4401 ft | 174 kts | 292° |
| 2026-05-04 04:32 | -32.82243 | -60.85495 | 4775 ft | 175 kts | 295° |
| 2026-05-04 04:32 | -32.81764 | -60.86825 | 5144 ft | 175 kts | 297° |
| 2026-05-04 04:33 | -32.81261 | -60.88141 | 5522 ft | 175 kts | 296° |
| 2026-05-04 04:33 | -32.80747 | -60.89449 | 5885 ft | 175 kts | 297° |
| 2026-05-04 04:33 | -32.80235 | -60.90754 | 6257 ft | 174 kts | 297° |
| 2026-05-04 04:33 | -32.79726 | -60.92065 | 6597 ft | 175 kts | 296° |
| 2026-05-04 04:34 | -32.79224 | -60.93385 | 6902 ft | 176 kts | 296° |
| 2026-05-04 04:34 | -32.78713 | -60.94712 | 7212 ft | 177 kts | 296° |
| 2026-05-04 04:34 | -32.78194 | -60.96050 | 7510 ft | 179 kts | 295° |
| 2026-05-04 04:34 | -32.77670 | -60.97394 | 7815 ft | 180 kts | 295° |
| 2026-05-04 04:35 | -32.77140 | -60.98748 | 8107 ft | 181 kts | 295° |
| 2026-05-04 04:35 | -32.76607 | -61.00114 | 8401 ft | 183 kts | 295° |
| 2026-05-04 04:35 | -32.76076 | -61.01470 | 8682 ft | 184 kts | 295° |
| 2026-05-04 04:35 | -32.75532 | -61.02871 | 8974 ft | 185 kts | 295° |
| 2026-05-04 04:36 | -32.74996 | -61.04244 | 9256 ft | 186 kts | 295° |
| 2026-05-04 04:36 | -32.74447 | -61.05643 | 9538 ft | 187 kts | 294° |
| 2026-05-04 04:36 | -32.73896 | -61.07052 | 9817 ft | 188 kts | 294° |
| 2026-05-04 04:36 | -32.73342 | -61.08466 | 10067 ft | 189 kts | 294° |
| 2026-05-04 04:37 | -32.71654 | -61.12735 | 10782 ft | 191 kts | 294° |
| 2026-05-04 04:37 | -32.71084 | -61.14165 | 11036 ft | 192 kts | 293° |
| 2026-05-04 04:38 | -32.70514 | -61.15597 | 11272 ft | 192 kts | 293° |
| 2026-05-04 04:38 | -32.69948 | -61.17039 | 11503 ft | 193 kts | 292° |
| 2026-05-04 04:38 | -32.69381 | -61.18486 | 11736 ft | 194 kts | 292° |
| 2026-05-04 04:38 | -32.68808 | -61.19938 | 11971 ft | 194 kts | 292° |
| 2026-05-04 04:39 | -32.68237 | -61.21398 | 12196 ft | 195 kts | 292° |
| 2026-05-04 04:39 | -32.67667 | -61.22861 | 12417 ft | 196 kts | 291° |
| 2026-05-04 04:39 | -32.67092 | -61.24329 | 12648 ft | 196 kts | 291° |
| 2026-05-04 04:39 | -32.66512 | -61.25802 | 12874 ft | 197 kts | 291° |
| 2026-05-04 04:40 | -32.65927 | -61.27276 | 13096 ft | 198 kts | 291° |
| 2026-05-04 04:40 | -32.65344 | -61.28756 | 13315 ft | 199 kts | 291° |
| 2026-05-04 04:40 | -32.64740 | -61.30236 | 13519 ft | 200 kts | 294° |
| 2026-05-04 04:40 | -32.64037 | -61.31666 | 13724 ft | 202 kts | 297° |
| 2026-05-04 04:41 | -32.63292 | -61.33085 | 13916 ft | 202 kts | 297° |
| 2026-05-04 04:41 | -32.62552 | -61.34505 | 14090 ft | 203 kts | 297° |
| 2026-05-04 04:41 | -32.61815 | -61.35927 | 14266 ft | 203 kts | 296° |
| 2026-05-04 04:41 | -32.61079 | -61.37356 | 14449 ft | 202 kts | 296° |
| 2026-05-04 04:42 | -32.60356 | -61.38787 | 14621 ft | 203 kts | 296° |
| 2026-05-04 04:42 | -32.59636 | -61.40226 | 14809 ft | 203 kts | 296° |
| 2026-05-04 04:42 | -32.58917 | -61.41666 | 15006 ft | 203 kts | 296° |
| 2026-05-04 04:42 | -32.58203 | -61.43107 | 15186 ft | 203 kts | 295° |
| 2026-05-04 04:43 | -32.57489 | -61.44553 | 15361 ft | 203 kts | 295° |
| 2026-05-04 04:43 | -32.56772 | -61.45997 | 15534 ft | 204 kts | 295° |
| 2026-05-04 04:43 | -32.56051 | -61.47442 | 15707 ft | 204 kts | 296° |
| 2026-05-04 04:43 | -32.55337 | -61.48867 | 15869 ft | 204 kts | 296° |
| 2026-05-04 04:44 | -32.54611 | -61.50314 | 16030 ft | 204 kts | 296° |
| 2026-05-04 04:44 | -32.53885 | -61.51758 | 16192 ft | 204 kts | 296° |
| 2026-05-04 04:44 | -32.53157 | -61.53204 | 16342 ft | 204 kts | 296° |
| 2026-05-04 04:44 | -32.52428 | -61.54651 | 16493 ft | 205 kts | 296° |
| 2026-05-04 04:45 | -32.51699 | -61.56102 | 16638 ft | 205 kts | 296° |
| 2026-05-04 04:45 | -32.50971 | -61.57554 | 16793 ft | 205 kts | 296° |
| 2026-05-04 04:45 | -32.50242 | -61.59010 | 16962 ft | 205 kts | 295° |
| 2026-05-04 04:47 | -32.45847 | -61.67759 | 17884 ft | 207 kts | 296° |
| 2026-05-04 04:47 | -32.45109 | -61.69222 | 18022 ft | 207 kts | 296° |
| 2026-05-04 04:47 | -32.44371 | -61.70684 | 18156 ft | 207 kts | 296° |
| 2026-05-04 04:47 | -32.43632 | -61.72147 | 18282 ft | 207 kts | 296° |
| 2026-05-04 04:48 | -32.42891 | -61.73614 | 18392 ft | 208 kts | 296° |
| 2026-05-04 04:49 | -32.39913 | -61.79501 | 18785 ft | 209 kts | 296° |
| 2026-05-04 04:49 | -32.39165 | -61.80977 | 18876 ft | 210 kts | 296° |
| 2026-05-04 04:49 | -32.38416 | -61.82458 | 18962 ft | 210 kts | 296° |
| 2026-05-04 04:49 | -32.37666 | -61.83938 | 19079 ft | 210 kts | 296° |
| 2026-05-04 04:50 | -32.37168 | -61.84923 | 19156 ft | 210 kts | 296° |
| 2026-05-04 04:50 | -32.36411 | -61.86410 | 19259 ft | 211 kts | 296° |
| 2026-05-04 04:50 | -32.35657 | -61.87895 | 19358 ft | 211 kts | 296° |
| 2026-05-04 04:50 | -32.34901 | -61.89391 | 19458 ft | 212 kts | 296° |
| 2026-05-04 04:51 | -32.33904 | -61.91371 | 19584 ft | 212 kts | 296° |
| 2026-05-04 04:51 | -32.33388 | -61.92384 | 19642 ft | 213 kts | 296° |
| 2026-05-04 04:51 | -32.32378 | -61.94366 | 19764 ft | 213 kts | 296° |
| 2026-05-04 04:51 | -32.31862 | -61.95377 | 19826 ft | 213 kts | 296° |
| 2026-05-04 04:52 | -32.31098 | -61.96882 | 19908 ft | 213 kts | 296° |
| 2026-05-04 04:52 | -32.30329 | -61.98397 | 19923 ft | 217 kts | 296° |
| 2026-05-04 04:52 | -32.29545 | -61.99939 | 19930 ft | 221 kts | 296° |
| 2026-05-04 04:52 | -32.28749 | -62.01505 | 19934 ft | 224 kts | 296° |
| 2026-05-04 04:53 | -32.27944 | -62.03089 | 19941 ft | 226 kts | 296° |
| 2026-05-04 04:53 | -32.27130 | -62.04690 | 19939 ft | 228 kts | 296° |
| 2026-05-04 04:53 | -32.26310 | -62.06301 | 19955 ft | 230 kts | 296° |
| 2026-05-04 04:53 | -32.25494 | -62.07906 | 19963 ft | 231 kts | 296° |
| 2026-05-04 04:54 | -32.24652 | -62.09557 | 19968 ft | 233 kts | 296° |
| 2026-05-04 04:54 | -32.23827 | -62.11176 | 19973 ft | 234 kts | 297° |
| 2026-05-04 04:54 | -32.22987 | -62.12821 | 19977 ft | 234 kts | 296° |
| 2026-05-04 04:54 | -32.22144 | -62.14471 | 19983 ft | 235 kts | 297° |
| 2026-05-04 04:55 | -32.21297 | -62.16131 | 19988 ft | 236 kts | 297° |
| 2026-05-04 04:55 | -32.20447 | -62.17789 | 19990 ft | 236 kts | 297° |
| 2026-05-04 04:55 | -32.19596 | -62.19455 | 19991 ft | 237 kts | 297° |
| 2026-05-04 04:55 | -32.18744 | -62.21123 | 19997 ft | 237 kts | 297° |
| 2026-05-04 04:56 | -32.17889 | -62.22792 | 19998 ft | 238 kts | 297° |
| 2026-05-04 04:56 | -32.17035 | -62.24464 | 20001 ft | 238 kts | 297° |
| 2026-05-04 04:56 | -32.16177 | -62.26140 | 20004 ft | 239 kts | 297° |
| 2026-05-04 04:56 | -32.15318 | -62.27817 | 20005 ft | 239 kts | 297° |
| 2026-05-04 04:57 | -32.14458 | -62.29494 | 20005 ft | 239 kts | 297° |
| 2026-05-04 04:57 | -32.13600 | -62.31170 | 20059 ft | 237 kts | 297° |
| 2026-05-04 04:57 | -32.12745 | -62.32837 | 20076 ft | 237 kts | 297° |
| 2026-05-04 04:57 | -32.11891 | -62.34503 | 20075 ft | 238 kts | 297° |
| 2026-05-04 04:58 | -32.11035 | -62.36170 | 20073 ft | 238 kts | 297° |
| 2026-05-04 04:58 | -32.10180 | -62.37835 | 20074 ft | 237 kts | 297° |
| 2026-05-04 04:58 | -32.09324 | -62.39502 | 20072 ft | 238 kts | 297° |
| 2026-05-04 04:58 | -32.08460 | -62.41185 | 20071 ft | 243 kts | 297° |
| 2026-05-04 04:59 | -32.07577 | -62.42903 | 20075 ft | 247 kts | 297° |
| 2026-05-04 04:59 | -32.06681 | -62.44644 | 20081 ft | 250 kts | 297° |
| 2026-05-04 04:59 | -32.05781 | -62.46389 | 20083 ft | 247 kts | 297° |
| 2026-05-04 04:59 | -32.04895 | -62.48112 | 20086 ft | 246 kts | 297° |
| 2026-05-04 05:00 | -32.04019 | -62.49814 | 20172 ft | 241 kts | 298° |
| 2026-05-04 05:00 | -32.03149 | -62.51503 | 20170 ft | 241 kts | 297° |
| 2026-05-04 05:00 | -32.01408 | -62.54881 | 20166 ft | 241 kts | 297° |
| 2026-05-04 05:01 | -32.00547 | -62.56551 | 20166 ft | 241 kts | 297° |
| 2026-05-04 05:01 | -31.99672 | -62.58245 | 20161 ft | 241 kts | 298° |
| 2026-05-04 05:01 | -31.98795 | -62.59944 | 20052 ft | 246 kts | 298° |
| 2026-05-04 05:01 | -31.97891 | -62.61689 | 19893 ft | 252 kts | 298° |
| 2026-05-04 05:02 | -31.96986 | -62.63436 | 19958 ft | 248 kts | 298° |
| 2026-05-04 05:02 | -31.96092 | -62.65164 | 19953 ft | 247 kts | 298° |
| 2026-05-04 05:02 | -31.95200 | -62.66888 | 19953 ft | 246 kts | 298° |
| 2026-05-04 05:02 | -31.94310 | -62.68607 | 19947 ft | 246 kts | 298° |
| 2026-05-04 05:03 | -31.93422 | -62.70320 | 19950 ft | 245 kts | 298° |
| 2026-05-04 05:03 | -31.92529 | -62.72025 | 19947 ft | 244 kts | 298° |
| 2026-05-04 05:04 | -31.89890 | -62.77127 | 19950 ft | 243 kts | 298° |
| 2026-05-04 05:04 | -31.89012 | -62.78823 | 19956 ft | 243 kts | 298° |
| 2026-05-04 05:04 | -31.88129 | -62.80522 | 19956 ft | 243 kts | 298° |
| 2026-05-04 05:06 | -31.81959 | -62.92383 | 19965 ft | 243 kts | 298° |
| 2026-05-04 05:06 | -31.81076 | -62.94075 | 19967 ft | 243 kts | 298° |
| 2026-05-04 05:06 | -31.80194 | -62.95767 | 19968 ft | 243 kts | 298° |
| 2026-05-04 05:07 | -31.79311 | -62.97460 | 19969 ft | 243 kts | 298° |
| 2026-05-04 05:07 | -31.78429 | -62.99150 | 19970 ft | 243 kts | 298° |
| 2026-05-04 05:07 | -31.77547 | -63.00840 | 19966 ft | 243 kts | 298° |
| 2026-05-04 05:09 | -31.70482 | -63.14342 | 19975 ft | 242 kts | 298° |
| 2026-05-04 05:09 | -31.69611 | -63.16004 | 19978 ft | 242 kts | 298° |
| 2026-05-04 05:10 | -31.68727 | -63.17687 | 19979 ft | 242 kts | 298° |
| 2026-05-04 05:10 | -31.67846 | -63.19371 | 19979 ft | 242 kts | 298° |
| 2026-05-04 05:10 | -31.66955 | -63.21081 | 19832 ft | 248 kts | 298° |
| 2026-05-04 05:10 | -31.66077 | -63.22845 | 19698 ft | 253 kts | 297° |
| 2026-05-04 05:11 | -31.65205 | -63.24681 | 19383 ft | 263 kts | 296° |
| 2026-05-04 05:11 | -31.64322 | -63.26584 | 19038 ft | 268 kts | 296° |
| 2026-05-04 05:11 | -31.63432 | -63.28521 | 18695 ft | 272 kts | 296° |
| 2026-05-04 05:11 | -31.62533 | -63.30487 | 18356 ft | 275 kts | 295° |
| 2026-05-04 05:12 | -31.61635 | -63.32472 | 17974 ft | 277 kts | 295° |
| 2026-05-04 05:12 | -31.60733 | -63.34476 | 17583 ft | 279 kts | 295° |
| 2026-05-04 05:12 | -31.59813 | -63.36487 | 17192 ft | 281 kts | 296° |
| 2026-05-04 05:12 | -31.58882 | -63.38506 | 16814 ft | 282 kts | 296° |
| 2026-05-04 05:13 | -31.57946 | -63.40528 | 16442 ft | 283 kts | 296° |
| 2026-05-04 05:13 | -31.57006 | -63.42557 | 16068 ft | 284 kts | 296° |
| 2026-05-04 05:13 | -31.56063 | -63.44595 | 15705 ft | 284 kts | 296° |
| 2026-05-04 05:13 | -31.55118 | -63.46635 | 15342 ft | 285 kts | 296° |
| 2026-05-04 05:14 | -31.54171 | -63.48679 | 14980 ft | 285 kts | 296° |
| 2026-05-04 05:14 | -31.53224 | -63.50721 | 14631 ft | 286 kts | 296° |
| 2026-05-04 05:14 | -31.52272 | -63.52771 | 14283 ft | 286 kts | 296° |
| 2026-05-04 05:14 | -31.51321 | -63.54821 | 13937 ft | 286 kts | 296° |
| 2026-05-04 05:15 | -31.50367 | -63.56873 | 13563 ft | 287 kts | 296° |
| 2026-05-04 05:15 | -31.49409 | -63.58922 | 13179 ft | 287 kts | 297° |
| 2026-05-04 05:15 | -31.48454 | -63.60972 | 12794 ft | 286 kts | 297° |
| 2026-05-04 05:15 | -31.47506 | -63.63018 | 12414 ft | 285 kts | 297° |
| 2026-05-04 05:16 | -31.46543 | -63.65049 | 12046 ft | 285 kts | 298° |
| 2026-05-04 05:16 | -31.45586 | -63.67073 | 11669 ft | 282 kts | 298° |
| 2026-05-04 05:16 | -31.44651 | -63.69075 | 11316 ft | 279 kts | 298° |
| 2026-05-04 05:16 | -31.43741 | -63.71072 | 10955 ft | 275 kts | 295° |
| 2026-05-04 05:17 | -31.43312 | -63.73208 | 10599 ft | 269 kts | 274° |
| 2026-05-04 05:17 | -31.43327 | -63.75377 | 10246 ft | 264 kts | 269° |
| 2026-05-04 05:17 | -31.43423 | -63.77508 | 9898 ft | 260 kts | 269° |
| 2026-05-04 05:17 | -31.43495 | -63.79612 | 9518 ft | 256 kts | 271° |
| 2026-05-04 05:18 | -31.43511 | -63.81674 | 9130 ft | 250 kts | 273° |
| 2026-05-04 05:18 | -31.43496 | -63.83688 | 8748 ft | 246 kts | 273° |
| 2026-05-04 05:18 | -31.43489 | -63.85682 | 8369 ft | 243 kts | 272° |
| 2026-05-04 05:18 | -31.43502 | -63.87658 | 7993 ft | 242 kts | 272° |
| 2026-05-04 05:19 | -31.43513 | -63.89616 | 7626 ft | 240 kts | 273° |
| 2026-05-04 05:19 | -31.43515 | -63.91570 | 7261 ft | 239 kts | 273° |
| 2026-05-04 05:19 | -31.43520 | -63.93486 | 6907 ft | 238 kts | 273° |
| 2026-05-04 05:19 | -31.43527 | -63.95424 | 6539 ft | 238 kts | 273° |
| 2026-05-04 05:20 | -31.43532 | -63.97394 | 5814 ft | 245 kts | 274° |
| 2026-05-04 05:20 | -31.43528 | -63.99296 | 5465 ft | 221 kts | 274° |
| 2026-05-04 05:20 | -31.43527 | -64.01007 | 5277 ft | 200 kts | 274° |
| 2026-05-04 05:20 | -31.43527 | -64.02597 | 5071 ft | 195 kts | 274° |
| 2026-05-04 05:21 | -31.43525 | -64.04195 | 4906 ft | 197 kts | 274° |
| 2026-05-04 05:21 | -31.43529 | -64.05806 | 4739 ft | 198 kts | 274° |
| 2026-05-04 05:21 | -31.43525 | -64.07419 | 4554 ft | 198 kts | 274° |
| 2026-05-04 05:21 | -31.43522 | -64.09033 | 4380 ft | 198 kts | 274° |
| 2026-05-04 05:22 | -31.43522 | -64.10644 | 4204 ft | 198 kts | 274° |
| 2026-05-04 05:22 | -31.43522 | -64.12255 | 4027 ft | 198 kts | 274° |
| 2026-05-04 05:22 | -31.43521 | -64.13866 | 3850 ft | 198 kts | 274° |
| 2026-05-04 05:22 | -31.43491 | -64.15462 | 3670 ft | 192 kts | 282° |
| 2026-05-04 05:23 | -31.42866 | -64.16756 | 3514 ft | 178 kts | 320° |
| 2026-05-04 05:23 | -31.41924 | -64.17625 | 3326 ft | 166 kts | 328° |
| 2026-05-04 05:23 | -31.40994 | -64.18304 | 3149 ft | 153 kts | 332° |
| 2026-05-04 05:23 | -31.40091 | -64.18908 | 2970 ft | 144 kts | 333° |
| 2026-05-04 05:24 | -31.39259 | -64.19467 | 2818 ft | 133 kts | 333° |
| 2026-05-04 05:24 | -31.38476 | -64.20001 | 2673 ft | 129 kts | 332° |
| 2026-05-04 05:24 | -31.37711 | -64.20527 | 2566 ft | 126 kts | 332° |
| 2026-05-04 05:24 | -31.36923 | -64.20938 | 2519 ft | 123 kts | 359° |
| 2026-05-04 05:25 | -31.36069 | -64.20837 | 2405 ft | 124 kts | 5° |
| 2026-05-04 05:25 | -31.35192 | -64.20798 | 2183 ft | 128 kts | 359° |
| 2026-05-04 05:25 | -31.34297 | -64.20806 | 2014 ft | 129 kts | 0° |
| 2026-05-04 05:25 | -31.33395 | -64.20798 | 1839 ft | 129 kts | 359° |
| 2026-05-04 05:26 | -31.32487 | -64.20816 | 1661 ft | 131 kts | 359° |
| 2026-05-04 05:26 | -31.31639 | -64.20830 | 1617 ft | 111 kts | 1° |
| 2026-05-04 05:26 | -31.31150 | -64.20835 | 1612 ft | 50 kts | 358° |
| 2026-05-04 05:26 | -31.30937 | -64.20821 | 1608 ft | 19 kts | 9° |
| 2026-05-04 05:27 | -31.30905 | -64.20837 | 1608 ft | 3 kts | 264° |
| 2026-05-04 05:28 | -31.31400 | -64.20829 | 1617 ft | 8 kts | 178° |
| 2026-05-04 05:29 | -31.31455 | -64.20857 | 1610 ft | 9 kts | 226° |
| 2026-05-04 05:29 | -31.31465 | -64.20901 | 1614 ft | 0 kts | 269° |
| 2026-05-04 05:31 | -31.31553 | -64.21091 | 1614 ft | 6 kts | 210° |
| 2026-05-04 05:31 | -31.31565 | -64.21102 | 1609 ft | 4 kts | 230° |
| 2026-05-04 05:32 | -31.31575 | -64.21136 | 1614 ft | 5 kts | 254° |
| 2026-05-04 05:32 | -31.31580 | -64.21158 | 1611 ft | 3 kts | 254° |
| 2026-05-04 05:32 | -31.31582 | -64.21164 | 1613 ft | 0 kts | 253° |